Time;durP1;ratioP1;P1;durP2;ratioP2;P2;SDS_P1;SDS_P2;PMS_P1;PMS_P2;Temp;Humidity;BMP_temperature;BMP_pressure;BME280_temperature;BME280_humidity;BME280_pressure;Samples;Min_cycle;Max_cycle;Signal;HPM_P1;HPM_P2
2023/11/01 00:05:15;;;;;;;;;;;;;;;;;;4978036;28;4473;-53
2023/11/01 00:07:40;;;;;;;;;;;;;;;;;;4974334;28;5272;-53
2023/11/01 00:10:06;;;;;;;;;;;;;;;;;;4977580;28;4657;-53
2023/11/01 00:12:31;;;;;;;;;;;;;;;;;;4977263;28;4670;-53
2023/11/01 00:17:59;;;;;;;;;;;;;;;;;;4977234;28;4998;-53
2023/11/01 00:20:25;;;;;;;;;;;;;;;;;;4977616;28;1248;-53
2023/11/01 00:22:50;;;;;;;;;;;;;;;;;;4977969;28;4637;-51
2023/11/01 00:34:24;;;;;;;;;;;;;;;;;;4977112;28;5159;-52
2023/11/01 00:36:49;;;;;;;;;;;;;;;;;;4977213;28;5022;-54
2023/11/01 00:39:14;;;;;;;;;;;;;;;;;;4976515;28;4651;-54
2023/11/01 00:41:39;;;;;;;;;;;;;;;;;;4983814;28;2845;-53
2023/11/01 00:44:39;;;;;;;;;;;;;;;;;;4996390;28;5239;-53
2023/11/01 00:50:07;;;;;;;;;;;;;;;;;;4977137;28;5104;-54
2023/11/01 00:52:33;;;;;;;;;;;;;;;;;;4958867;28;5052;-53
2023/11/01 00:54:58;;;;;;;;;;;;;;;;;;4960443;28;5386;-54
2023/11/01 00:57:24;;;;;;;;;;;;;;;;;;4989423;28;4572;-54
2023/11/01 00:59:49;;;;;;;;;;;;;;;;;;4986132;28;2595;-54
2023/11/01 01:02:15;;;;;;;;;;;;;;;;;;4989598;28;4453;-52
2023/11/01 01:04:45;;;;;;;;;;;;;;;;;;4976298;28;4589;-54
2023/11/01 01:07:36;;;;;;;;;;;;;;;;;;4977004;28;5095;-54
2023/11/01 01:10:01;;;;;;;;;;;;;;;;;;4972727;28;4496;-51
2023/11/01 01:15:29;;;;;;;;;;;;;;;;;;4995499;28;4587;-53
2023/11/01 01:21:12;;;;;;;;;;;;;;;;;;4976853;28;5114;-54
2023/11/01 01:23:37;;;;;;;;;;;;;;;;;;4976703;28;1415;-53
2023/11/01 01:26:02;;;;;;;;;;;;;;;;;;4975769;28;4499;-53
2023/11/01 01:28:28;;;;;;;;;;;;;;;;;;4978398;28;4536;-52
2023/11/01 01:33:56;;;;;;;;;;;;;;;;;;4995190;28;5036;-54
2023/11/01 01:36:21;;;;;;;;;;;;;;;;;;4994887;28;5021;-54
2023/11/01 01:38:46;;;;;;;;;;;;;;;;;;4995986;28;1171;-55
2023/11/01 01:41:11;;;;;;;;;;;;;;;;;;4990956;28;5021;-54
2023/11/01 01:46:39;;;;;;;;;;;;;;;;;;5015257;28;4614;-53
2023/11/01 01:52:07;;;;;;;;;;;;;;;;;;5014717;28;5116;-52
2023/11/01 01:54:32;;;;;;;;;;;;;;;;;;5014873;28;4506;-55
2023/11/01 01:56:58;;;;;;;;;;;;;;;;;;5013202;28;5030;-56
2023/11/01 01:59:23;;;;;;;;;;;;;;;;;;5014307;28;1204;-54
2023/11/01 02:04:51;;;;;;;;;;;;;;;;;;5011720;28;5033;-54
2023/11/01 02:07:16;;;;;;;;;;;;;;;;;;4996775;28;4584;-54
2023/11/01 02:09:42;;;;;;;;;;;;;;;;;;5014526;28;4573;-54
2023/11/01 02:12:07;;;;;;;;;;;;;;;;;;5012213;28;5189;-51
2023/11/01 02:23:40;;;;;;;;;;;;;;;;;;4993418;28;4728;-52
2023/11/01 02:26:07;;;;;;;;;;;;;;;;;;5024454;28;4658;-51
2023/11/01 02:28:32;;;;;;;;;;;;;;;;;;4994589;28;4530;-53
2023/11/01 02:34:00;;;;;;;;;;;;;;;;;;4994676;28;4898;-53
2023/11/01 02:39:28;;;;;;;;;;;;;;;;;;4994589;28;5095;-53
2023/11/01 02:41:53;;;;;;;;;;;;;;;;;;4994555;28;5075;-54
2023/11/01 02:44:18;;;;;;;;;;;;;;;;;;4995286;28;1977;-53
2023/11/01 02:46:44;;;;;;;;;;;;;;;;;;4994365;28;5038;-51
2023/11/01 02:55:15;;;;;;;;;;;;;;;;;;4994676;28;5088;-54
2023/11/01 02:58:05;;;;;;;;;;;;;;;;;;5024620;28;4588;-54
2023/11/01 03:03:41;;;;;;;;;;;;;;;;;;4992752;28;4714;-53
2023/11/01 03:12:18;;;;;;;;;;;;;;;;;;4994472;28;5039;-52
2023/11/01 03:17:42;;;;;;;;;;;;;;;;;;4993516;28;5118;-52
2023/11/01 03:20:08;;;;;;;;;;;;;;;;;;5013984;28;4840;-54
2023/11/01 03:26:15;;;;;;;;;;;;;;;;;;5000613;28;4716;-52
2023/11/01 03:28:41;;;;;;;;;;;;;;;;;;4976500;28;4615;-52
2023/11/01 03:34:09;;;;;;;;;;;;;;;;;;4978198;28;4996;-54
2023/11/01 03:39:57;;;;;;;;;;;;;;;;;;4978159;28;4589;-53
2023/11/01 03:45:25;;;;;;;;;;;;;;;;;;4978174;28;4475;-53
2023/11/01 03:47:51;;;;;;;;;;;;;;;;;;4978364;28;1220;-54
2023/11/01 03:50:16;;;;;;;;;;;;;;;;;;4978416;28;4903;-54
2023/11/01 03:52:42;;;;;;;;;;;;;;;;;;4977530;28;4909;-54
2023/11/01 03:58:10;;;;;;;;;;;;;;;;;;4978139;28;4700;-53
2023/11/01 04:09:54;;;;;;;;;;;;;;;;;;4977562;28;4633;-54
2023/11/01 04:15:22;;;;;;;;;;;;;;;;;;4977453;28;5081;-53
2023/11/01 04:17:47;;;;;;;;;;;;;;;;;;4977780;28;1121;-54
2023/11/01 04:20:13;;;;;;;;;;;;;;;;;;4977538;28;5071;-54
2023/11/01 04:22:38;;;;;;;;;;;;;;;;;;4977184;28;5132;-53
2023/11/01 04:28:32;;;;;;;;;;;;;;;;;;4986106;28;5010;-54
2023/11/01 04:30:59;;;;;;;;;;;;;;;;;;4975684;28;4995;-54
2023/11/01 04:33:24;;;;;;;;;;;;;;;;;;4977130;28;4601;-54
2023/11/01 04:38:53;;;;;;;;;;;;;;;;;;4976940;28;5112;-54
2023/11/01 04:41:52;;;;;;;;;;;;;;;;;;4992372;28;1074;-54
2023/11/01 04:47:20;;;;;;;;;;;;;;;;;;4977623;28;4607;-54
2023/11/01 04:49:46;;;;;;;;;;;;;;;;;;4964084;28;4753;-54
2023/11/01 04:52:11;;;;;;;;;;;;;;;;;;4966730;28;5867;-52
2023/11/01 04:54:36;;;;;;;;;;;;;;;;;;4976258;28;4512;-54
2023/11/01 05:00:11;;;;;;;;;;;;;;;;;;4996041;28;5249;-54
2023/11/01 05:05:38;;;;;;;;;;;;;;;;;;4988022;28;4561;-52
2023/11/01 05:11:07;;;;;;;;;;;;;;;;;;4958233;28;5332;-53
2023/11/01 05:13:32;;;;;;;;;;;;;;;;;;4956839;29;4495;-53
2023/11/01 05:15:57;;;;;;;;;;;;;;;;;;4956672;28;4857;-53
2023/11/01 05:18:24;;;;;;;;;;;;;;;;;;4956608;29;5051;-51
2023/11/01 05:23:51;;;;;;;;;;;;;;;;;;4975138;28;5018;-52
2023/11/01 05:32:46;;;;;;;;;;;;;;;;;;4995744;28;4587;-52
2023/11/01 05:38:15;;;;;;;;;;;;;;;;;;4995325;28;5100;-52
2023/11/01 05:50:18;;;;;;;;;;;;;;;;;;4985748;28;5084;-53
2023/11/01 05:52:50;;;;;;;;;;;;;;;;;;4976683;28;5114;-54
2023/11/01 05:55:16;;;;;;;;;;;;;;;;;;5006207;28;4838;-52
2023/11/01 05:57:41;;;;;;;;;;;;;;;;;;4949607;28;5313;-54
2023/11/01 06:00:09;;;;;;;;;;;;;;;;;;4975831;28;5081;-53
2023/11/01 06:02:35;;;;;;;;;;;;;;;;;;4993719;28;1400;-53
2023/11/01 06:05:00;;;;;;;;;;;;;;;;;;4994459;28;4443;-53
2023/11/01 06:07:26;;;;;;;;;;;;;;;;;;4994826;28;4629;-51
2023/11/01 06:12:54;;;;;;;;;;;;;;;;;;4994731;28;4395;-53
2023/11/01 06:15:19;;;;;;;;;;;;;;;;;;4994343;28;4672;-52
2023/11/01 06:17:45;;;;;;;;;;;;;;;;;;4995126;28;1085;-54
2023/11/01 06:20:10;;;;;;;;;;;;;;;;;;4994540;28;4868;-53
2023/11/01 06:25:38;;;;;;;;;;;;;;;;;;4994802;28;4505;-53
2023/11/01 06:28:20;;;;;;;;;;;;;;;;;;4994838;28;5726;-52
2023/11/01 06:33:48;;;;;;;;;;;;;;;;;;5014268;28;4997;-53
2023/11/01 06:42:37;;;;;;;;;;;;;;;;;;5002932;28;5119;-52
2023/11/01 06:48:05;;;;;;;;;;;;;;;;;;5012056;28;4805;-52
2023/11/01 06:50:31;;;;;;;;;;;;;;;;;;4991284;28;3290;-52
2023/11/01 06:52:56;;;;;;;;;;;;;;;;;;4994253;28;4622;-52
2023/11/01 06:55:21;;;;;;;;;;;;;;;;;;4974791;28;5130;-51
2023/11/01 06:58:12;;;;;;;;;;;;;;;;;;4994896;28;4697;-50
2023/11/01 07:00:38;;;;;;;;;;;;;;;;;;4990425;28;5243;-52
2023/11/01 07:06:08;;;;;;;;;;;;;;;;;;4993548;28;4699;-50
2023/11/01 07:08:33;;;;;;;;;;;;;;;;;;5005494;28;1171;-49
2023/11/01 07:11:07;;;;;;;;;;;;;;;;;;4996992;28;5113;-51
2023/11/01 07:13:32;;;;;;;;;;;;;;;;;;5014556;28;4468;-52
2023/11/01 07:15:58;;;;;;;;;;;;;;;;;;5017001;28;4589;-51
2023/11/01 07:18:23;;;;;;;;;;;;;;;;;;5016331;28;5133;-51
2023/11/01 07:20:48;;;;;;;;;;;;;;;;;;5011436;28;1180;-50
2023/11/01 07:23:14;;;;;;;;;;;;;;;;;;4997508;28;4448;-52
2023/11/01 07:25:39;;;;;;;;;;;;;;;;;;4997432;28;5117;-52
2023/11/01 07:28:04;;;;;;;;;;;;;;;;;;5007448;28;4637;-51
2023/11/01 07:30:51;;;;;;;;;;;;;;;;;;5016700;28;4840;-51
2023/11/01 07:33:16;;;;;;;;;;;;;;;;;;5001138;28;4958;-51
2023/11/01 07:35:42;;;;;;;;;;;;;;;;;;5012809;28;1069;-50
2023/11/01 07:38:08;;;;;;;;;;;;;;;;;;5016753;28;4977;-51
2023/11/01 07:40:33;;;;;;;;;;;;;;;;;;5002125;28;4435;-51
2023/11/01 07:42:59;;;;;;;;;;;;;;;;;;4995275;28;5785;-50
2023/11/01 07:45:24;;;;;;;;;;;;;;;;;;4994235;28;5121;-52
2023/11/01 07:48:18;;;;;;;;;;;;;;;;;;4997964;28;1021;-49
2023/11/01 07:50:43;;;;;;;;;;;;;;;;;;4999829;28;6350;-52
2023/11/01 07:53:08;;;;;;;;;;;;;;;;;;5005132;28;4479;-52
2023/11/01 07:55:34;;;;;;;;;;;;;;;;;;4982496;28;4708;-50
2023/11/01 07:57:59;;;;;;;;;;;;;;;;;;4982395;28;4928;-52
2023/11/01 08:00:25;;;;;;;;;;;;;;;;;;4975793;28;4949;-49
2023/11/01 08:02:53;;;;;;;;;;;;;;;;;;4974712;28;1382;-50
2023/11/01 08:05:19;;;;;;;;;;;;;;;;;;4993510;28;6135;-53
2023/11/01 08:07:44;;;;;;;;;;;;;;;;;;4982303;28;4959;-52
2023/11/01 08:10:10;;;;;;;;;;;;;;;;;;5005751;28;5013;-50
2023/11/01 08:12:36;;;;;;;;;;;;;;;;;;5009037;28;4978;-50
2023/11/01 08:15:01;;;;;;;;;;;;;;;;;;4989861;28;5063;-56
2023/11/01 08:17:26;;;;;;;;;;;;;;;;;;4988550;28;3158;-51
2023/11/01 08:19:51;;;;;;;;;;;;;;;;;;4977574;28;5065;-52
2023/11/01 08:22:17;;;;;;;;;;;;;;;;;;4989814;28;5104;-52
2023/11/01 08:24:42;;;;;;;;;;;;;;;;;;4997133;28;4990;-49
2023/11/01 08:27:08;;;;;;;;;;;;;;;;;;4981677;28;5106;-49
2023/11/01 08:29:43;;;;;;;;;;;;;;;;;;4981409;28;4603;-50
2023/11/01 08:38:31;;;;;;;;;;;;;;;;;;4978665;28;4976;-63
2023/11/01 08:43:59;;;;;;;;;;;;;;;;;;4994359;28;5370;-63
2023/11/01 08:46:27;;;;;;;;;;;;;;;;;;4985615;28;4717;-64
2023/11/01 08:49:04;;;;;;;;;;;;;;;;;;4992833;28;4691;-61
2023/11/01 08:51:32;;;;;;;;;;;;;;;;;;4973477;28;4507;-63
2023/11/01 08:54:00;;;;;;;;;;;;;;;;;;4990425;28;5054;-64
2023/11/01 08:56:26;;;;;;;;;;;;;;;;;;4980921;28;2894;-61
2023/11/01 08:58:52;;;;;;;;;;;;;;;;;;4952919;28;4537;-62
2023/11/01 09:01:18;;;;;;;;;;;;;;;;;;4976970;28;4530;-62
2023/11/01 09:03:43;;;;;;;;;;;;;;;;;;4976623;28;5080;-61
2023/11/01 09:06:09;;;;;;;;;;;;;;;;;;4999579;28;4491;-61
2023/11/01 09:08:40;;;;;;;;;;;;;;;;;;5000207;28;1725;-71
2023/11/01 09:11:06;;;;;;;;;;;;;;;;;;5015721;28;4967;-61
2023/11/01 09:13:31;;;;;;;;;;;;;;;;;;5015434;28;4500;-60
2023/11/01 09:15:56;;;;;;;;;;;;;;;;;;5001606;28;5145;-64
2023/11/01 09:18:21;;;;;;;;;;;;;;;;;;5010442;28;5064;-62
2023/11/01 09:20:47;;;;;;;;;;;;;;;;;;4999631;28;3208;-61
2023/11/01 09:23:12;;;;;;;;;;;;;;;;;;4993994;28;4646;-60
2023/11/01 09:26:12;;;;;;;;;;;;;;;;;;4997767;28;5026;-63
2023/11/01 09:28:37;;;;;;;;;;;;;;;;;;5009716;28;5079;-61
2023/11/01 09:31:02;;;;;;;;;;;;;;;;;;5012871;28;5076;-61
2023/11/01 09:33:28;;;;;;;;;;;;;;;;;;4992809;28;5187;-60
2023/11/01 09:39:15;;;;;;;;;;;;;;;;;;5001106;28;4504;-60
2023/11/01 09:44:55;;;;;;;;;;;;;;;;;;4994212;28;4532;-61
2023/11/01 09:47:20;;;;;;;;;;;;;;;;;;4997935;28;4539;-62
2023/11/01 09:49:47;;;;;;;;;;;;;;;;;;4999837;28;4428;-61
2023/11/01 09:52:12;;;;;;;;;;;;;;;;;;4975624;28;4656;-60
2023/11/01 09:54:37;;;;;;;;;;;;;;;;;;4989866;28;4990;-62
2023/11/01 09:57:04;;;;;;;;;;;;;;;;;;5008712;28;4853;-63
2023/11/01 09:59:30;;;;;;;;;;;;;;;;;;5004642;28;1019;-61
2023/11/01 10:01:55;;;;;;;;;;;;;;;;;;4994723;28;4708;-59
2023/11/01 10:04:20;;;;;;;;;;;;;;;;;;4994526;28;5016;-56
2023/11/01 10:06:46;;;;;;;;;;;;;;;;;;5029067;28;4696;-52
2023/11/01 10:09:11;;;;;;;;;;;;;;;;;;4992287;28;5096;-55
2023/11/01 10:11:50;;;;;;;;;;;;;;;;;;5004604;28;2765;-53
2023/11/01 10:14:28;;;;;;;;;;;;;;;;;;5006520;28;4958;-54
2023/11/01 10:17:30;;;;;;;;;;;;;;;;;;5004378;28;4491;-52
2023/11/01 10:22:58;;;;;;;;;;;;;;;;;;5004810;28;5200;-53
2023/11/01 10:25:24;;;;;;;;;;;;;;;;;;5007238;28;5142;-52
2023/11/01 10:27:50;;;;;;;;;;;;;;;;;;5014069;28;4436;-52
2023/11/01 10:30:15;;;;;;;;;;;;;;;;;;5006542;28;4613;-52
2023/11/01 10:32:59;;;;;;;;;;;;;;;;;;4999124;28;1156;-51
2023/11/01 10:35:26;;;;;;;;;;;;;;;;;;5029217;28;4652;-53
2023/11/01 10:37:54;;;;;;;;;;;;;;;;;;5003503;28;5281;-52
2023/11/01 10:40:20;;;;;;;;;;;;;;;;;;5014876;28;4673;-49
2023/11/01 10:42:45;;;;;;;;;;;;;;;;;;5004585;28;5128;-51
2023/11/01 10:45:10;;;;;;;;;;;;;;;;;;5039321;28;5491;-52
2023/11/01 10:50:39;;;;;;;;;;;;;;;;;;5006486;28;4560;-57
2023/11/01 10:53:04;;;;;;;;;;;;;;;;;;5002119;28;5105;-54
2023/11/01 10:55:30;;;;;;;;;;;;;;;;;;5033305;28;4633;-52
2023/11/01 10:57:55;;;;;;;;;;;;;;;;;;4995693;28;5189;-52
2023/11/01 11:00:37;;;;;;;;;;;;;;;;;;5003240;28;4685;-53
2023/11/01 11:03:08;;;;;;;;;;;;;;;;;;4993046;28;5072;-53
2023/11/01 11:05:33;;;;;;;;;;;;;;;;;;5024704;28;1922;-52
2023/11/01 11:08:16;;;;;;;;;;;;;;;;;;5005526;28;4988;-51
2023/11/01 11:10:43;;;;;;;;;;;;;;;;;;4997440;28;4509;-54
2023/11/01 11:13:17;;;;;;;;;;;;;;;;;;4998588;28;5146;-53
2023/11/01 11:15:45;;;;;;;;;;;;;;;;;;4998517;28;4723;-52
2023/11/01 11:18:11;;;;;;;;;;;;;;;;;;4995589;28;5270;-50
2023/11/01 11:20:36;;;;;;;;;;;;;;;;;;5004215;28;1014;-50
2023/11/01 11:23:01;;;;;;;;;;;;;;;;;;5015330;28;4610;-52
2023/11/01 11:31:57;;;;;;;;;;;;;;;;;;5005933;28;5344;-52
2023/11/01 11:34:22;;;;;;;;;;;;;;;;;;5025126;28;5119;-52
2023/11/01 11:37:05;;;;;;;;;;;;;;;;;;4996943;28;5131;-53
2023/11/01 11:45:54;;;;;;;;;;;;;;;;;;5010272;28;4495;-52
2023/11/01 11:48:38;;;;;;;;;;;;;;;;;;4992662;28;4671;-52
2023/11/01 11:51:04;;;;;;;;;;;;;;;;;;4995442;28;4494;-53
2023/11/01 11:53:34;;;;;;;;;;;;;;;;;;5012429;28;2183;-51
2023/11/01 11:55:59;;;;;;;;;;;;;;;;;;5024448;28;4534;-52
2023/11/01 11:58:25;;;;;;;;;;;;;;;;;;4977590;28;4911;-52
2023/11/01 12:00:51;;;;;;;;;;;;;;;;;;5000811;28;5563;-52
2023/11/01 12:03:20;;;;;;;;;;;;;;;;;;5035991;28;5125;-52
2023/11/01 12:05:46;;;;;;;;;;;;;;;;;;5014349;28;1910;-53
2023/11/01 12:08:11;;;;;;;;;;;;;;;;;;5028081;28;5172;-53
2023/11/01 12:10:48;;;;;;;;;;;;;;;;;;5013816;28;5167;-52
2023/11/01 12:13:14;;;;;;;;;;;;;;;;;;5011520;28;4627;-52
2023/11/01 12:21:48;;;;;;;;;;;;;;;;;;4993894;28;5105;-52
2023/11/01 12:51:37;;;;;;;;;;;;;;;;;;5000151;28;4680;-58
2023/11/01 12:54:09;;;;;;;;;;;;;;;;;;4991667;28;5121;-57
2023/11/01 12:56:35;;;;;;;;;;;;;;;;;;4990803;28;3318;-58
2023/11/01 12:59:00;;;;;;;;;;;;;;;;;;4991599;28;4464;-57
2023/11/01 13:01:26;;;;;;;;;;;;;;;;;;4995788;28;4757;-57
2023/11/01 13:03:51;;;;;;;;;;;;;;;;;;5004140;28;5145;-57
2023/11/01 13:06:18;;;;;;;;;;;;;;;;;;5025256;28;4541;-57
2023/11/01 13:11:47;;;;;;;;;;;;;;;;;;5003764;28;4721;-57
2023/11/01 13:14:12;;;;;;;;;;;;;;;;;;4999839;28;4632;-57
2023/11/01 13:16:38;;;;;;;;;;;;;;;;;;4998269;28;4732;-57
2023/11/01 13:19:03;;;;;;;;;;;;;;;;;;5005869;28;5102;-57
2023/11/01 13:24:31;;;;;;;;;;;;;;;;;;4992823;28;5225;-57
2023/11/01 13:33:02;;;;;;;;;;;;;;;;;;5033924;28;5137;-64
2023/11/01 13:35:27;;;;;;;;;;;;;;;;;;4991928;28;1613;-64
2023/11/01 13:38:11;;;;;;;;;;;;;;;;;;4988969;28;4720;-65
2023/11/01 13:46:36;;;;;;;;;;;;;;;;;;4998488;28;5039;-63
2023/11/01 13:49:03;;;;;;;;;;;;;;;;;;5010723;28;4969;-63
2023/11/01 13:51:28;;;;;;;;;;;;;;;;;;5012938;28;4462;-63
2023/11/01 13:53:53;;;;;;;;;;;;;;;;;;5007659;28;5090;-68
2023/11/01 13:56:19;;;;;;;;;;;;;;;;;;5011784;28;1143;-63
2023/11/01 13:58:50;;;;;;;;;;;;;;;;;;5007364;28;4744;-63
2023/11/01 14:01:15;;;;;;;;;;;;;;;;;;5012429;28;4514;-63
2023/11/01 14:03:42;;;;;;;;;;;;;;;;;;5013805;28;4461;-63
2023/11/01 14:06:08;;;;;;;;;;;;;;;;;;5008310;28;4529;-63
2023/11/01 14:08:33;;;;;;;;;;;;;;;;;;5007603;28;1507;-63
2023/11/01 14:10:58;;;;;;;;;;;;;;;;;;5004599;28;5230;-63
2023/11/01 14:13:24;;;;;;;;;;;;;;;;;;4998989;28;4861;-67
2023/11/01 14:15:50;;;;;;;;;;;;;;;;;;5003944;28;5127;-63
2023/11/01 14:21:30;;;;;;;;;;;;;;;;;;4998328;28;4666;-69
2023/11/01 14:23:55;;;;;;;;;;;;;;;;;;5002391;28;4613;-64
2023/11/01 14:26:20;;;;;;;;;;;;;;;;;;5000248;28;1969;-64
2023/11/01 14:28:54;;;;;;;;;;;;;;;;;;5003341;28;5093;-64
2023/11/01 14:31:20;;;;;;;;;;;;;;;;;;4998623;28;5796;-64
2023/11/01 14:33:45;;;;;;;;;;;;;;;;;;5000280;28;5149;-64
2023/11/01 14:36:12;;;;;;;;;;;;;;;;;;4998436;28;5090;-64
2023/11/01 14:41:40;;;;;;;;;;;;;;;;;;4995064;28;4749;-64
2023/11/01 14:44:05;;;;;;;;;;;;;;;;;;4963313;28;4864;-65
2023/11/01 14:46:30;;;;;;;;;;;;;;;;;;4997237;28;4943;-64
2023/11/01 14:48:56;;;;;;;;;;;;;;;;;;5010051;28;5039;-67
2023/11/01 14:51:40;;;;;;;;;;;;;;;;;;4985607;28;4651;-67
2023/11/01 14:54:05;;;;;;;;;;;;;;;;;;4990749;28;4541;-66
2023/11/01 14:56:30;;;;;;;;;;;;;;;;;;4997477;28;3922;-68
2023/11/01 14:59:04;;;;;;;;;;;;;;;;;;4982384;28;5089;-67
2023/11/01 15:01:29;;;;;;;;;;;;;;;;;;5001188;28;4661;-67
2023/11/01 15:03:55;;;;;;;;;;;;;;;;;;4979038;28;5207;-67
2023/11/01 15:06:20;;;;;;;;;;;;;;;;;;4994646;28;4749;-67
2023/11/01 15:08:45;;;;;;;;;;;;;;;;;;5003277;28;1933;-67
2023/11/01 15:11:10;;;;;;;;;;;;;;;;;;5002107;28;4450;-68
2023/11/01 15:13:36;;;;;;;;;;;;;;;;;;5007169;28;4656;-67
2023/11/01 15:16:02;;;;;;;;;;;;;;;;;;5004410;28;4793;-64
2023/11/01 15:18:27;;;;;;;;;;;;;;;;;;4983761;28;5069;-58
2023/11/01 15:20:53;;;;;;;;;;;;;;;;;;4984591;28;4724;-58
2023/11/01 15:26:09;;;;;;;;;;;;;;;;;;4998323;28;4490;-58
2023/11/01 15:35:09;;;;;;;;;;;;;;;;;;4993400;28;4696;-57
2023/11/01 15:37:41;;;;;;;;;;;;;;;;;;4986250;28;4803;-58
2023/11/01 15:40:07;;;;;;;;;;;;;;;;;;4991198;28;5122;-58
2023/11/01 15:42:33;;;;;;;;;;;;;;;;;;4997025;28;4533;-59
2023/11/01 15:57:19;;;;;;;;;;;;;;;;;;5002168;28;5091;-60
2023/11/01 15:59:44;;;;;;;;;;;;;;;;;;5007134;28;1182;-58
2023/11/01 16:02:10;;;;;;;;;;;;;;;;;;5009219;28;5117;-58
2023/11/01 16:04:35;;;;;;;;;;;;;;;;;;5015970;28;4466;-58
2023/11/01 16:07:01;;;;;;;;;;;;;;;;;;5003872;28;5277;-57
2023/11/01 16:09:26;;;;;;;;;;;;;;;;;;5012306;28;5048;-58
2023/11/01 16:12:22;;;;;;;;;;;;;;;;;;5009781;28;1830;-59
2023/11/01 16:14:47;;;;;;;;;;;;;;;;;;5002298;28;5984;-59
2023/11/01 16:17:14;;;;;;;;;;;;;;;;;;5012513;28;5082;-59
2023/11/01 16:19:39;;;;;;;;;;;;;;;;;;5008726;28;4660;-59
2023/11/01 16:28:24;;;;;;;;;;;;;;;;;;4994942;28;5084;-59
2023/11/01 16:30:52;;;;;;;;;;;;;;;;;;4996033;28;5218;-59
2023/11/01 16:33:18;;;;;;;;;;;;;;;;;;4968931;28;5203;-58
2023/11/01 16:35:43;;;;;;;;;;;;;;;;;;4978031;28;1108;-59
2023/11/01 16:38:08;;;;;;;;;;;;;;;;;;4990124;28;5286;-58
2023/11/01 16:40:34;;;;;;;;;;;;;;;;;;4993950;28;5096;-59
2023/11/01 16:42:59;;;;;;;;;;;;;;;;;;4993076;28;5070;-59
2023/11/01 16:51:20;;;;;;;;;;;;;;;;;;4996484;28;4877;-58
2023/11/01 17:03:08;;;;;;;;;;;;;;;;;;5035835;28;5103;-59
2023/11/01 17:05:34;;;;;;;;;;;;;;;;;;5035030;28;1977;-58
2023/11/01 17:07:59;;;;;;;;;;;;;;;;;;5017496;28;4468;-58
2023/11/01 17:10:31;;;;;;;;;;;;;;;;;;5003962;28;4921;-61
2023/11/01 17:15:59;;;;;;;;;;;;;;;;;;5014909;28;5139;-61
2023/11/01 17:18:25;;;;;;;;;;;;;;;;;;5014639;28;4626;-61
2023/11/01 17:20:51;;;;;;;;;;;;;;;;;;5014698;28;939;-61
2023/11/01 17:23:19;;;;;;;;;;;;;;;;;;5008894;28;4798;-61
2023/11/01 17:28:42;;;;;;;;;;;;;;;;;;4990356;28;4453;-61
2023/11/01 17:31:11;;;;;;;;;;;;;;;;;;5000869;28;4812;-61
2023/11/01 17:33:37;;;;;;;;;;;;;;;;;;4974423;28;5101;-61
2023/11/01 17:40:10;;;;;;;;;;;;;;;;;;5010294;28;4701;-62
2023/11/01 17:46:01;;;;;;;;;;;;;;;;;;4993130;28;5159;-62
2023/11/01 17:48:31;;;;;;;;;;;;;;;;;;4973608;28;4954;-62
2023/11/01 17:57:03;;;;;;;;;;;;;;;;;;4972447;28;4504;-61
2023/11/01 17:59:28;;;;;;;;;;;;;;;;;;4954547;28;2205;-62
2023/11/01 18:01:54;;;;;;;;;;;;;;;;;;4976000;28;4720;-61
2023/11/01 18:04:21;;;;;;;;;;;;;;;;;;4974714;28;5057;-62
2023/11/01 18:09:51;;;;;;;;;;;;;;;;;;4981992;28;5067;-61
2023/11/01 18:12:16;;;;;;;;;;;;;;;;;;4980531;28;5201;-61
2023/11/01 18:14:41;;;;;;;;;;;;;;;;;;4973655;28;1154;-61
2023/11/01 18:17:08;;;;;;;;;;;;;;;;;;4971039;28;4602;-60
2023/11/01 18:19:34;;;;;;;;;;;;;;;;;;4971464;28;4831;-60
2023/11/01 18:22:02;;;;;;;;;;;;;;;;;;4968426;28;5245;-61
2023/11/01 18:24:43;;;;;;;;;;;;;;;;;;4951803;28;5214;-61
2023/11/01 18:30:26;;;;;;;;;;;;;;;;;;4973699;28;5135;-61
2023/11/01 18:32:51;;;;;;;;;;;;;;;;;;4974358;28;1342;-61
2023/11/01 18:35:23;;;;;;;;;;;;;;;;;;4983145;28;4896;-61
2023/11/01 18:37:48;;;;;;;;;;;;;;;;;;4975752;28;4699;-61
2023/11/01 18:40:17;;;;;;;;;;;;;;;;;;5005657;28;4658;-61
2023/11/01 18:42:45;;;;;;;;;;;;;;;;;;5014710;28;5118;-61
2023/11/01 18:45:13;;;;;;;;;;;;;;;;;;4971751;28;5740;-61
2023/11/01 18:47:38;;;;;;;;;;;;;;;;;;5005172;28;1211;-61
2023/11/01 18:50:09;;;;;;;;;;;;;;;;;;5007069;28;4863;-61
2023/11/01 18:52:35;;;;;;;;;;;;;;;;;;5004020;28;4990;-61
2023/11/01 18:58:02;;;;;;;;;;;;;;;;;;5001078;28;5123;-61
2023/11/01 19:00:28;;;;;;;;;;;;;;;;;;4998490;28;5011;-61
2023/11/01 19:03:00;;;;;;;;;;;;;;;;;;4991897;28;5092;-61
2023/11/01 19:05:25;;;;;;;;;;;;;;;;;;4993190;28;1974;-61
2023/11/01 19:07:50;;;;;;;;;;;;;;;;;;5009796;28;4880;-61
2023/11/01 19:10:16;;;;;;;;;;;;;;;;;;4997386;28;4773;-61
2023/11/01 19:12:41;;;;;;;;;;;;;;;;;;4994170;28;4821;-61
2023/11/01 19:15:26;;;;;;;;;;;;;;;;;;5017554;28;4827;-61
2023/11/01 19:18:14;;;;;;;;;;;;;;;;;;4977855;28;1202;-61
2023/11/01 19:23:48;;;;;;;;;;;;;;;;;;4999298;28;4518;-61
2023/11/01 19:26:14;;;;;;;;;;;;;;;;;;4996814;28;4400;-61
2023/11/01 19:28:40;;;;;;;;;;;;;;;;;;4996504;28;5000;-61
2023/11/01 19:37:17;;;;;;;;;;;;;;;;;;5003089;28;4611;-61
2023/11/01 19:39:43;;;;;;;;;;;;;;;;;;5037284;28;5004;-61
2023/11/01 19:42:08;;;;;;;;;;;;;;;;;;5014714;28;5042;-61
2023/11/01 19:44:34;;;;;;;;;;;;;;;;;;5016215;28;1119;-61
2023/11/01 19:46:59;;;;;;;;;;;;;;;;;;4994528;28;4868;-61
2023/11/01 19:49:25;;;;;;;;;;;;;;;;;;4995093;28;4950;-62
2023/11/01 19:51:53;;;;;;;;;;;;;;;;;;5001757;28;5036;-61
2023/11/01 19:54:18;;;;;;;;;;;;;;;;;;4992247;28;4973;-62
2023/11/01 19:56:43;;;;;;;;;;;;;;;;;;4969223;28;3243;-62
2023/11/01 19:59:11;;;;;;;;;;;;;;;;;;4981393;28;5322;-61
2023/11/01 20:01:36;;;;;;;;;;;;;;;;;;4987035;28;5506;-61
2023/11/01 20:04:01;;;;;;;;;;;;;;;;;;4994123;28;5028;-61
2023/11/01 20:06:26;;;;;;;;;;;;;;;;;;4996554;28;5012;-61
2023/11/01 20:08:52;;;;;;;;;;;;;;;;;;4978117;28;2727;-61
2023/11/01 20:11:17;;;;;;;;;;;;;;;;;;5015249;28;4433;-61
2023/11/01 20:16:46;;;;;;;;;;;;;;;;;;5014238;28;4770;-61
2023/11/01 20:22:14;;;;;;;;;;;;;;;;;;4994757;28;5080;-61
2023/11/01 20:24:42;;;;;;;;;;;;;;;;;;4995947;28;4997;-61
2023/11/01 20:27:07;;;;;;;;;;;;;;;;;;4996710;28;4919;-57
2023/11/01 20:29:33;;;;;;;;;;;;;;;;;;4997274;28;1175;-57
2023/11/01 20:35:01;;;;;;;;;;;;;;;;;;4996614;28;5025;-56
2023/11/01 20:37:26;;;;;;;;;;;;;;;;;;4996501;28;4809;-57
2023/11/01 20:39:51;;;;;;;;;;;;;;;;;;5011464;28;4850;-58
2023/11/01 20:45:19;;;;;;;;;;;;;;;;;;4995010;28;4746;-58
2023/11/01 20:47:46;;;;;;;;;;;;;;;;;;4990831;28;1712;-58
2023/11/01 20:50:12;;;;;;;;;;;;;;;;;;5014395;28;4519;-58
2023/11/01 20:52:38;;;;;;;;;;;;;;;;;;5009854;28;4867;-58
2023/11/01 20:55:05;;;;;;;;;;;;;;;;;;4976248;28;4812;-59
2023/11/01 20:57:32;;;;;;;;;;;;;;;;;;4982584;28;5061;-58
2023/11/01 20:59:57;;;;;;;;;;;;;;;;;;5005189;28;4546;-58
2023/11/01 21:02:22;;;;;;;;;;;;;;;;;;4998295;28;3149;-58
2023/11/01 21:04:48;;;;;;;;;;;;;;;;;;4995664;28;4955;-57
2023/11/01 21:07:13;;;;;;;;;;;;;;;;;;5008147;28;5351;-59
2023/11/01 21:09:38;;;;;;;;;;;;;;;;;;4994428;28;4996;-73
2023/11/01 21:12:04;;;;;;;;;;;;;;;;;;5000462;28;4844;-64
2023/11/01 21:14:34;;;;;;;;;;;;;;;;;;4994279;28;2700;-65
2023/11/01 21:16:59;;;;;;;;;;;;;;;;;;4993349;28;4457;-65
2023/11/01 21:19:24;;;;;;;;;;;;;;;;;;5013326;28;5138;-66
2023/11/01 21:22:32;;;;;;;;;;;;;;;;;;5003597;28;4559;-65
2023/11/01 21:28:02;;;;;;;;;;;;;;;;;;4995502;28;5054;-66
2023/11/01 21:33:30;;;;;;;;;;;;;;;;;;4995795;28;4957;-66
2023/11/01 21:39:17;;;;;;;;;;;;;;;;;;5004570;28;5100;-65
2023/11/01 21:41:43;;;;;;;;;;;;;;;;;;4992974;28;3292;-66
2023/11/01 21:44:08;;;;;;;;;;;;;;;;;;4990324;28;5022;-66
2023/11/01 21:46:33;;;;;;;;;;;;;;;;;;4999600;28;5219;-66
2023/11/01 21:49:18;;;;;;;;;;;;;;;;;;5009530;28;5186;-66
2023/11/01 22:01:16;;;;;;;;;;;;;;;;;;4999861;28;4683;-66
2023/11/01 22:03:42;;;;;;;;;;;;;;;;;;4998947;28;5012;-66
2023/11/01 22:06:20;;;;;;;;;;;;;;;;;;4995108;28;5065;-67
2023/11/01 22:11:51;;;;;;;;;;;;;;;;;;4976147;28;4963;-66
2023/11/01 22:23:27;;;;;;;;;;;;;;;;;;4987206;28;4635;-62
2023/11/01 22:25:52;;;;;;;;;;;;;;;;;;4976118;28;5258;-65
2023/11/01 22:28:17;;;;;;;;;;;;;;;;;;4977227;28;4702;-65
2023/11/01 22:30:43;;;;;;;;;;;;;;;;;;4982110;28;4642;-66
2023/11/01 22:33:09;;;;;;;;;;;;;;;;;;4975984;28;4672;-66
2023/11/01 22:35:37;;;;;;;;;;;;;;;;;;4975645;28;2937;-62
2023/11/01 22:38:03;;;;;;;;;;;;;;;;;;4996664;28;4830;-65
2023/11/01 22:40:28;;;;;;;;;;;;;;;;;;4981580;28;5212;-63
2023/11/01 22:42:57;;;;;;;;;;;;;;;;;;5000996;28;5231;-66
2023/11/01 22:45:22;;;;;;;;;;;;;;;;;;4986440;28;5300;-66
2023/11/01 22:47:48;;;;;;;;;;;;;;;;;;4986987;28;2746;-67
2023/11/01 22:50:13;;;;;;;;;;;;;;;;;;4987725;28;5136;-67
2023/11/01 22:52:38;;;;;;;;;;;;;;;;;;4995822;28;5009;-66
2023/11/01 22:55:04;;;;;;;;;;;;;;;;;;4982373;28;4521;-66
2023/11/01 22:57:30;;;;;;;;;;;;;;;;;;5000963;28;5049;-67
2023/11/01 22:59:55;;;;;;;;;;;;;;;;;;5001803;28;4535;-66
2023/11/01 23:02:21;;;;;;;;;;;;;;;;;;4981265;28;3312;-66
2023/11/01 23:04:48;;;;;;;;;;;;;;;;;;4997594;28;5472;-66
2023/11/01 23:07:14;;;;;;;;;;;;;;;;;;4984248;28;5047;-66
2023/11/01 23:12:42;;;;;;;;;;;;;;;;;;4986937;28;4469;-66
2023/11/01 23:33:39;;;;;;;;;;;;;;;;;;4976688;28;5057;-66
2023/11/01 23:36:05;;;;;;;;;;;;;;;;;;5018185;28;5129;-65
2023/11/01 23:38:34;;;;;;;;;;;;;;;;;;5000731;28;3265;-65
2023/11/01 23:40:59;;;;;;;;;;;;;;;;;;4994622;28;4530;-65
2023/11/01 23:43:30;;;;;;;;;;;;;;;;;;4980818;28;5101;-66
2023/11/01 23:46:02;;;;;;;;;;;;;;;;;;4977537;28;4667;-65